sensor_id;sensor_type;location;lat;lon;timestamp;temperature;humidity
1021;DHT22;499;42.648;23.270;2022-11-15T00:02:18;3.40;99.90
1021;DHT22;499;42.648;23.270;2022-11-15T00:04:45;3.40;99.90
1021;DHT22;499;42.648;23.270;2022-11-15T00:07:12;3.40;99.90
1021;DHT22;499;42.648;23.270;2022-11-15T00:09:40;3.40;99.90
1021;DHT22;499;42.648;23.270;2022-11-15T00:12:07;3.30;99.90
1021;DHT22;499;42.648;23.270;2022-11-15T00:14:34;3.30;99.90
1021;DHT22;499;42.648;23.270;2022-11-15T00:17:01;3.30;99.90
1021;DHT22;499;42.648;23.270;2022-11-15T00:19:28;3.30;99.90
1021;DHT22;499;42.648;23.270;2022-11-15T00:21:55;3.40;99.90
1021;DHT22;499;42.648;23.270;2022-11-15T00:24:22;3.40;99.90
1021;DHT22;499;42.648;23.270;2022-11-15T00:26:51;3.30;99.90
1021;DHT22;499;42.648;23.270;2022-11-15T00:29:18;3.40;99.90
1021;DHT22;499;42.648;23.270;2022-11-15T00:31:45;3.40;99.90
1021;DHT22;499;42.648;23.270;2022-11-15T00:34:12;3.30;99.90
1021;DHT22;499;42.648;23.270;2022-11-15T00:36:39;3.40;99.90
1021;DHT22;499;42.648;23.270;2022-11-15T00:39:06;3.40;99.90
1021;DHT22;499;42.648;23.270;2022-11-15T00:41:33;3.30;99.90
1021;DHT22;499;42.648;23.270;2022-11-15T00:44:02;3.30;99.90
1021;DHT22;499;42.648;23.270;2022-11-15T00:46:29;3.30;99.90
1021;DHT22;499;42.648;23.270;2022-11-15T00:48:56;3.20;99.90
1021;DHT22;499;42.648;23.270;2022-11-15T00:51:23;3.20;99.90
1021;DHT22;499;42.648;23.270;2022-11-15T00:53:50;3.20;99.90
1021;DHT22;499;42.648;23.270;2022-11-15T00:56:17;3.20;99.90
1021;DHT22;499;42.648;23.270;2022-11-15T00:58:44;3.20;99.90
1021;DHT22;499;42.648;23.270;2022-11-15T01:01:14;3.20;99.90
1021;DHT22;499;42.648;23.270;2022-11-15T01:03:41;3.20;99.90
1021;DHT22;499;42.648;23.270;2022-11-15T01:06:11;3.20;99.90
1021;DHT22;499;42.648;23.270;2022-11-15T01:08:39;3.20;99.90
1021;DHT22;499;42.648;23.270;2022-11-15T01:11:08;3.20;99.90
1021;DHT22;499;42.648;23.270;2022-11-15T01:13:37;3.30;99.90
1021;DHT22;499;42.648;23.270;2022-11-15T01:16:08;3.20;99.90
1021;DHT22;499;42.648;23.270;2022-11-15T01:18:37;3.10;99.90
1021;DHT22;499;42.648;23.270;2022-11-15T01:21:06;3.10;99.90
1021;DHT22;499;42.648;23.270;2022-11-15T01:23:33;3.10;99.90
1021;DHT22;499;42.648;23.270;2022-11-15T01:26:01;3.00;99.90
1021;DHT22;499;42.648;23.270;2022-11-15T01:28:30;3.00;99.90
1021;DHT22;499;42.648;23.270;2022-11-15T01:30:58;3.10;99.90
1021;DHT22;499;42.648;23.270;2022-11-15T01:33:26;3.10;99.90
1021;DHT22;499;42.648;23.270;2022-11-15T01:35:55;3.10;99.90
1021;DHT22;499;42.648;23.270;2022-11-15T01:38:22;3.10;99.90
1021;DHT22;499;42.648;23.270;2022-11-15T01:40:49;3.10;99.90
1021;DHT22;499;42.648;23.270;2022-11-15T01:43:21;3.10;99.90
1021;DHT22;499;42.648;23.270;2022-11-15T01:45:51;3.10;99.90
1021;DHT22;499;42.648;23.270;2022-11-15T01:48:21;3.10;99.90
1021;DHT22;499;42.648;23.270;2022-11-15T01:50:49;3.10;99.90
1021;DHT22;499;42.648;23.270;2022-11-15T01:53:20;3.10;99.90
1021;DHT22;499;42.648;23.270;2022-11-15T01:55:48;3.10;99.90
1021;DHT22;499;42.648;23.270;2022-11-15T01:58:15;3.10;99.90
1021;DHT22;499;42.648;23.270;2022-11-15T02:00:42;3.00;99.90
1021;DHT22;499;42.648;23.270;2022-11-15T02:03:09;3.00;99.90
1021;DHT22;499;42.648;23.270;2022-11-15T02:05:37;3.10;99.90
1021;DHT22;499;42.648;23.270;2022-11-15T02:08:05;3.10;99.90
1021;DHT22;499;42.648;23.270;2022-11-15T02:10:34;3.00;99.90
1021;DHT22;499;42.648;23.270;2022-11-15T02:13:02;3.00;99.90
1021;DHT22;499;42.648;23.270;2022-11-15T02:15:40;2.90;99.90
1021;DHT22;499;42.648;23.270;2022-11-15T02:18:15;2.80;99.90
1021;DHT22;499;42.648;23.270;2022-11-15T02:21:00;2.80;99.90
1021;DHT22;499;42.648;23.270;2022-11-15T02:29:48;2.80;99.90
1021;DHT22;499;42.648;23.270;2022-11-15T02:32:28;2.90;99.90
1021;DHT22;499;42.648;23.270;2022-11-15T02:35:01;2.90;99.90
1021;DHT22;499;42.648;23.270;2022-11-15T02:37:36;2.90;99.90
1021;DHT22;499;42.648;23.270;2022-11-15T02:40:10;2.90;99.90
1021;DHT22;499;42.648;23.270;2022-11-15T02:42:43;2.90;99.90
1021;DHT22;499;42.648;23.270;2022-11-15T02:45:32;3.00;99.90
1021;DHT22;499;42.648;23.270;2022-11-15T02:48:04;2.50;99.90
1021;DHT22;499;42.648;23.270;2022-11-15T02:50:33;3.00;99.90
1021;DHT22;499;42.648;23.270;2022-11-15T02:53:01;3.00;99.90
1021;DHT22;499;42.648;23.270;2022-11-15T02:55:30;3.00;99.90
1021;DHT22;499;42.648;23.270;2022-11-15T02:58:12;2.90;99.90
1021;DHT22;499;42.648;23.270;2022-11-15T03:00:45;2.90;99.90
1021;DHT22;499;42.648;23.270;2022-11-15T03:03:32;2.90;99.90
1021;DHT22;499;42.648;23.270;2022-11-15T03:06:13;2.90;99.90
1021;DHT22;499;42.648;23.270;2022-11-15T03:08:46;2.80;99.90
1021;DHT22;499;42.648;23.270;2022-11-15T03:11:18;2.90;99.90
1021;DHT22;499;42.648;23.270;2022-11-15T03:13:49;3.00;99.90
1021;DHT22;499;42.648;23.270;2022-11-15T03:16:21;2.90;99.90
1021;DHT22;499;42.648;23.270;2022-11-15T03:18:53;3.00;99.90
1021;DHT22;499;42.648;23.270;2022-11-15T03:21:23;3.00;99.90
1021;DHT22;499;42.648;23.270;2022-11-15T03:23:51;3.00;99.90
1021;DHT22;499;42.648;23.270;2022-11-15T03:26:21;3.00;99.90
1021;DHT22;499;42.648;23.270;2022-11-15T03:28:53;3.10;99.90
1021;DHT22;499;42.648;23.270;2022-11-15T03:31:23;3.20;99.90
1021;DHT22;499;42.648;23.270;2022-11-15T03:34:15;3.30;99.90
1021;DHT22;499;42.648;23.270;2022-11-15T03:36:46;3.30;99.90
1021;DHT22;499;42.648;23.270;2022-11-15T03:39:14;3.50;99.90
1021;DHT22;499;42.648;23.270;2022-11-15T03:41:46;3.70;99.90
1021;DHT22;499;42.648;23.270;2022-11-15T03:44:20;3.70;99.90
1021;DHT22;499;42.648;23.270;2022-11-15T03:46:57;3.60;99.90
1021;DHT22;499;42.648;23.270;2022-11-15T03:49:30;3.50;99.90
1021;DHT22;499;42.648;23.270;2022-11-15T03:51:59;3.60;99.90
1021;DHT22;499;42.648;23.270;2022-11-15T03:54:26;3.40;99.90
1021;DHT22;499;42.648;23.270;2022-11-15T03:56:54;3.40;99.90
1021;DHT22;499;42.648;23.270;2022-11-15T03:59:21;3.50;99.90
1021;DHT22;499;42.648;23.270;2022-11-15T04:01:48;3.60;99.90
1021;DHT22;499;42.648;23.270;2022-11-15T04:04:15;3.60;99.90
1021;DHT22;499;42.648;23.270;2022-11-15T04:06:43;3.60;99.90
1021;DHT22;499;42.648;23.270;2022-11-15T04:09:10;3.50;99.90
1021;DHT22;499;42.648;23.270;2022-11-15T04:11:37;3.40;99.90
1021;DHT22;499;42.648;23.270;2022-11-15T04:14:04;3.40;99.90
1021;DHT22;499;42.648;23.270;2022-11-15T04:16:31;3.30;99.90
1021;DHT22;499;42.648;23.270;2022-11-15T04:18:58;3.40;99.90
1021;DHT22;499;42.648;23.270;2022-11-15T04:21:44;3.40;99.90
1021;DHT22;499;42.648;23.270;2022-11-15T04:24:28;3.40;99.90
1021;DHT22;499;42.648;23.270;2022-11-15T04:26:55;3.40;99.90
1021;DHT22;499;42.648;23.270;2022-11-15T04:29:22;3.30;99.90
1021;DHT22;499;42.648;23.270;2022-11-15T04:32:01;3.30;99.90
1021;DHT22;499;42.648;23.270;2022-11-15T04:34:28;3.30;99.90
1021;DHT22;499;42.648;23.270;2022-11-15T04:36:57;3.30;99.90
1021;DHT22;499;42.648;23.270;2022-11-15T04:39:39;3.20;99.90
1021;DHT22;499;42.648;23.270;2022-11-15T04:42:06;2.90;99.90
1021;DHT22;499;42.648;23.270;2022-11-15T04:44:33;3.00;99.90
1021;DHT22;499;42.648;23.270;2022-11-15T04:47:01;3.00;99.90
1021;DHT22;499;42.648;23.270;2022-11-15T04:49:28;3.00;99.90
1021;DHT22;499;42.648;23.270;2022-11-15T04:51:56;2.80;99.90
1021;DHT22;499;42.648;23.270;2022-11-15T04:54:23;2.60;99.90
1021;DHT22;499;42.648;23.270;2022-11-15T04:56:51;2.70;99.90
1021;DHT22;499;42.648;23.270;2022-11-15T04:59:18;2.70;99.90
1021;DHT22;499;42.648;23.270;2022-11-15T05:01:45;2.60;99.90
1021;DHT22;499;42.648;23.270;2022-11-15T05:04:12;2.60;99.90
1021;DHT22;499;42.648;23.270;2022-11-15T05:06:48;2.60;99.90
1021;DHT22;499;42.648;23.270;2022-11-15T05:09:17;2.60;99.90
1021;DHT22;499;42.648;23.270;2022-11-15T05:11:45;2.70;99.90
1021;DHT22;499;42.648;23.270;2022-11-15T05:14:12;2.80;99.90
1021;DHT22;499;42.648;23.270;2022-11-15T05:16:40;3.00;99.90
1021;DHT22;499;42.648;23.270;2022-11-15T05:19:07;3.00;99.90
1021;DHT22;499;42.648;23.270;2022-11-15T05:21:34;3.10;99.90
1021;DHT22;499;42.648;23.270;2022-11-15T05:24:03;3.10;99.90
1021;DHT22;499;42.648;23.270;2022-11-15T05:26:31;3.20;99.90
1021;DHT22;499;42.648;23.270;2022-11-15T05:28:59;3.20;99.90
1021;DHT22;499;42.648;23.270;2022-11-15T05:31:27;3.30;99.90
1021;DHT22;499;42.648;23.270;2022-11-15T05:33:55;3.30;99.90
1021;DHT22;499;42.648;23.270;2022-11-15T05:36:29;3.40;99.90
1021;DHT22;499;42.648;23.270;2022-11-15T05:38:58;3.50;99.90
1021;DHT22;499;42.648;23.270;2022-11-15T05:41:28;3.70;99.90
1021;DHT22;499;42.648;23.270;2022-11-15T05:44:00;3.80;99.90
1021;DHT22;499;42.648;23.270;2022-11-15T05:46:28;3.80;99.90
1021;DHT22;499;42.648;23.270;2022-11-15T05:48:56;3.90;99.90
1021;DHT22;499;42.648;23.270;2022-11-15T05:51:24;4.10;99.90
1021;DHT22;499;42.648;23.270;2022-11-15T05:53:55;4.20;99.90
1021;DHT22;499;42.648;23.270;2022-11-15T05:56:23;4.40;99.90
1021;DHT22;499;42.648;23.270;2022-11-15T05:58:52;4.40;99.90
1021;DHT22;499;42.648;23.270;2022-11-15T06:01:21;4.30;99.90
1021;DHT22;499;42.648;23.270;2022-11-15T06:03:48;4.20;99.90
1021;DHT22;499;42.648;23.270;2022-11-15T06:06:15;4.20;99.90
1021;DHT22;499;42.648;23.270;2022-11-15T06:08:42;4.20;99.90
1021;DHT22;499;42.648;23.270;2022-11-15T06:11:09;4.10;99.90
1021;DHT22;499;42.648;23.270;2022-11-15T06:13:36;4.10;99.90
1021;DHT22;499;42.648;23.270;2022-11-15T06:16:04;4.00;99.90
1021;DHT22;499;42.648;23.270;2022-11-15T06:18:33;4.00;99.90
1021;DHT22;499;42.648;23.270;2022-11-15T06:21:01;4.00;99.90
1021;DHT22;499;42.648;23.270;2022-11-15T06:23:31;4.10;99.90
1021;DHT22;499;42.648;23.270;2022-11-15T06:25:58;4.00;99.90
1021;DHT22;499;42.648;23.270;2022-11-15T06:28:28;4.20;99.90
1021;DHT22;499;42.648;23.270;2022-11-15T06:30:56;4.20;99.90
1021;DHT22;499;42.648;23.270;2022-11-15T06:33:23;4.30;99.90
1021;DHT22;499;42.648;23.270;2022-11-15T06:35:51;4.50;99.90
1021;DHT22;499;42.648;23.270;2022-11-15T06:38:18;4.50;99.90
1021;DHT22;499;42.648;23.270;2022-11-15T06:40:45;4.50;99.90
1021;DHT22;499;42.648;23.270;2022-11-15T06:43:13;4.70;99.90
1021;DHT22;499;42.648;23.270;2022-11-15T06:45:40;4.60;99.90
1021;DHT22;499;42.648;23.270;2022-11-15T06:48:07;4.50;99.90
1021;DHT22;499;42.648;23.270;2022-11-15T06:50:34;4.60;99.90
1021;DHT22;499;42.648;23.270;2022-11-15T06:53:03;4.50;99.90
1021;DHT22;499;42.648;23.270;2022-11-15T06:55:31;4.50;99.90
1021;DHT22;499;42.648;23.270;2022-11-15T06:57:58;4.50;99.90
1021;DHT22;499;42.648;23.270;2022-11-15T07:00:25;4.60;99.90
1021;DHT22;499;42.648;23.270;2022-11-15T07:02:52;4.90;99.90
1021;DHT22;499;42.648;23.270;2022-11-15T07:05:19;5.10;99.90
1021;DHT22;499;42.648;23.270;2022-11-15T07:07:51;5.20;99.90
1021;DHT22;499;42.648;23.270;2022-11-15T07:10:21;5.20;99.90
1021;DHT22;499;42.648;23.270;2022-11-15T07:12:50;5.20;99.90
1021;DHT22;499;42.648;23.270;2022-11-15T07:15:17;5.20;99.90
1021;DHT22;499;42.648;23.270;2022-11-15T07:17:45;5.20;99.90
1021;DHT22;499;42.648;23.270;2022-11-15T07:20:13;5.20;99.90
1021;DHT22;499;42.648;23.270;2022-11-15T07:22:40;5.10;99.90
1021;DHT22;499;42.648;23.270;2022-11-15T07:25:08;5.00;99.90
1021;DHT22;499;42.648;23.270;2022-11-15T07:27:37;5.10;99.90
1021;DHT22;499;42.648;23.270;2022-11-15T07:30:05;4.90;99.90
1021;DHT22;499;42.648;23.270;2022-11-15T07:32:32;4.80;99.90
1021;DHT22;499;42.648;23.270;2022-11-15T07:34:59;4.90;99.90
1021;DHT22;499;42.648;23.270;2022-11-15T07:37:26;5.00;99.90
1021;DHT22;499;42.648;23.270;2022-11-15T07:39:53;5.20;99.90
1021;DHT22;499;42.648;23.270;2022-11-15T07:42:20;5.30;99.90
1021;DHT22;499;42.648;23.270;2022-11-15T07:45:07;5.20;99.90
1021;DHT22;499;42.648;23.270;2022-11-15T07:47:34;5.20;99.90
1021;DHT22;499;42.648;23.270;2022-11-15T07:50:01;5.20;99.90
1021;DHT22;499;42.648;23.270;2022-11-15T07:52:29;5.30;99.90
1021;DHT22;499;42.648;23.270;2022-11-15T07:54:56;5.30;99.90
1021;DHT22;499;42.648;23.270;2022-11-15T07:57:23;5.30;99.90
1021;DHT22;499;42.648;23.270;2022-11-15T07:59:50;5.50;99.90
1021;DHT22;499;42.648;23.270;2022-11-15T08:02:18;5.40;99.90
1021;DHT22;499;42.648;23.270;2022-11-15T08:04:45;5.30;99.90
1021;DHT22;499;42.648;23.270;2022-11-15T08:07:13;5.40;99.90
1021;DHT22;499;42.648;23.270;2022-11-15T08:09:40;5.50;99.90
1021;DHT22;499;42.648;23.270;2022-11-15T08:12:07;5.60;99.90
1021;DHT22;499;42.648;23.270;2022-11-15T08:14:34;5.70;99.90
1021;DHT22;499;42.648;23.270;2022-11-15T08:17:02;5.80;99.90
1021;DHT22;499;42.648;23.270;2022-11-15T08:19:30;5.70;99.90
1021;DHT22;499;42.648;23.270;2022-11-15T08:21:57;5.70;99.90
1021;DHT22;499;42.648;23.270;2022-11-15T08:24:25;5.70;99.90
1021;DHT22;499;42.648;23.270;2022-11-15T08:26:52;5.80;99.90
1021;DHT22;499;42.648;23.270;2022-11-15T08:29:19;6.00;99.90
1021;DHT22;499;42.648;23.270;2022-11-15T08:31:46;6.00;99.90
1021;DHT22;499;42.648;23.270;2022-11-15T08:34:13;6.30;99.90
1021;DHT22;499;42.648;23.270;2022-11-15T08:36:41;6.20;99.90
1021;DHT22;499;42.648;23.270;2022-11-15T08:39:10;6.40;99.90
1021;DHT22;499;42.648;23.270;2022-11-15T08:41:38;6.30;99.90
1021;DHT22;499;42.648;23.270;2022-11-15T08:44:05;6.10;99.90
1021;DHT22;499;42.648;23.270;2022-11-15T08:46:32;6.10;99.90
1021;DHT22;499;42.648;23.270;2022-11-15T08:48:59;6.10;99.90
1021;DHT22;499;42.648;23.270;2022-11-15T08:51:26;6.10;99.90
1021;DHT22;499;42.648;23.270;2022-11-15T08:53:54;6.20;99.90
1021;DHT22;499;42.648;23.270;2022-11-15T08:56:23;6.30;99.90
1021;DHT22;499;42.648;23.270;2022-11-15T08:58:50;6.40;99.90
1021;DHT22;499;42.648;23.270;2022-11-15T09:01:19;6.40;99.90
1021;DHT22;499;42.648;23.270;2022-11-15T09:03:46;6.40;99.90
1021;DHT22;499;42.648;23.270;2022-11-15T09:06:13;6.50;99.90
1021;DHT22;499;42.648;23.270;2022-11-15T09:08:41;6.40;99.90
1021;DHT22;499;42.648;23.270;2022-11-15T09:11:10;6.40;99.90
1021;DHT22;499;42.648;23.270;2022-11-15T09:13:38;6.40;99.90
1021;DHT22;499;42.648;23.270;2022-11-15T09:16:05;6.40;99.90
1021;DHT22;499;42.648;23.270;2022-11-15T09:18:32;6.30;99.90
1021;DHT22;499;42.648;23.270;2022-11-15T09:20:59;6.30;99.90
1021;DHT22;499;42.648;23.270;2022-11-15T09:23:28;6.30;99.90
1021;DHT22;499;42.648;23.270;2022-11-15T09:25:58;6.40;99.90
1021;DHT22;499;42.648;23.270;2022-11-15T09:28:28;6.50;99.90
1021;DHT22;499;42.648;23.270;2022-11-15T09:30:57;6.40;99.90
1021;DHT22;499;42.648;23.270;2022-11-15T09:33:25;6.40;99.90
1021;DHT22;499;42.648;23.270;2022-11-15T09:35:52;6.60;99.90
1021;DHT22;499;42.648;23.270;2022-11-15T09:38:20;6.70;99.90
1021;DHT22;499;42.648;23.270;2022-11-15T09:40:50;6.80;99.90
1021;DHT22;499;42.648;23.270;2022-11-15T09:43:32;6.80;99.90
1021;DHT22;499;42.648;23.270;2022-11-15T09:46:11;6.90;99.90
1021;DHT22;499;42.648;23.270;2022-11-15T09:48:51;7.00;99.90
1021;DHT22;499;42.648;23.270;2022-11-15T09:51:30;7.20;99.90
1021;DHT22;499;42.648;23.270;2022-11-15T09:54:05;7.10;99.80
1021;DHT22;499;42.648;23.270;2022-11-15T09:56:39;7.10;99.20
1021;DHT22;499;42.648;23.270;2022-11-15T10:02:23;7.50;99.00
1021;DHT22;499;42.648;23.270;2022-11-15T10:04:57;7.70;98.50
1021;DHT22;499;42.648;23.270;2022-11-15T10:07:29;7.90;97.40
1021;DHT22;499;42.648;23.270;2022-11-15T10:10:02;7.80;95.80
1021;DHT22;499;42.648;23.270;2022-11-15T10:12:31;7.40;96.00
1021;DHT22;499;42.648;23.270;2022-11-15T10:15:02;7.60;98.00
1021;DHT22;499;42.648;23.270;2022-11-15T10:17:59;7.80;97.00
1021;DHT22;499;42.648;23.270;2022-11-15T10:20:34;7.80;95.50
1021;DHT22;499;42.648;23.270;2022-11-15T10:23:06;7.90;95.90
1021;DHT22;499;42.648;23.270;2022-11-15T10:25:37;7.80;95.50
1021;DHT22;499;42.648;23.270;2022-11-15T10:28:11;7.70;96.40
1021;DHT22;499;42.648;23.270;2022-11-15T10:30:41;7.50;96.10
1021;DHT22;499;42.648;23.270;2022-11-15T10:33:17;7.60;97.70
1021;DHT22;499;42.648;23.270;2022-11-15T10:35:46;7.80;98.20
1021;DHT22;499;42.648;23.270;2022-11-15T10:38:13;7.70;97.50
1021;DHT22;499;42.648;23.270;2022-11-15T10:40:41;7.60;98.10
1021;DHT22;499;42.648;23.270;2022-11-15T10:43:16;7.50;98.90
1021;DHT22;499;42.648;23.270;2022-11-15T10:45:44;7.60;99.90
1021;DHT22;499;42.648;23.270;2022-11-15T10:48:23;7.60;99.90
1021;DHT22;499;42.648;23.270;2022-11-15T10:50:52;7.70;99.90
1021;DHT22;499;42.648;23.270;2022-11-15T10:53:24;7.70;99.90
1021;DHT22;499;42.648;23.270;2022-11-15T10:55:54;7.80;99.90
1021;DHT22;499;42.648;23.270;2022-11-15T10:58:33;7.70;99.70
1021;DHT22;499;42.648;23.270;2022-11-15T11:01:13;7.60;99.20
1021;DHT22;499;42.648;23.270;2022-11-15T11:03:43;7.70;99.80
1021;DHT22;499;42.648;23.270;2022-11-15T11:06:13;7.70;99.60
1021;DHT22;499;42.648;23.270;2022-11-15T11:08:53;7.70;99.90
1021;DHT22;499;42.648;23.270;2022-11-15T11:11:21;7.60;99.90
1021;DHT22;499;42.648;23.270;2022-11-15T11:13:48;7.70;99.50
1021;DHT22;499;42.648;23.270;2022-11-15T11:16:41;7.70;99.10
1021;DHT22;499;42.648;23.270;2022-11-15T11:19:38;7.80;99.40
1021;DHT22;499;42.648;23.270;2022-11-15T11:22:28;7.80;98.20
1021;DHT22;499;42.648;23.270;2022-11-15T11:25:08;7.70;98.80
1021;DHT22;499;42.648;23.270;2022-11-15T11:27:47;7.80;99.20
1021;DHT22;499;42.648;23.270;2022-11-15T11:30:23;7.80;99.50
1021;DHT22;499;42.648;23.270;2022-11-15T11:33:05;7.90;99.20
1021;DHT22;499;42.648;23.270;2022-11-15T11:35:46;8.00;98.50
1021;DHT22;499;42.648;23.270;2022-11-15T11:38:31;8.10;97.90
1021;DHT22;499;42.648;23.270;2022-11-15T11:41:06;8.20;96.60
1021;DHT22;499;42.648;23.270;2022-11-15T11:43:45;8.20;94.90
1021;DHT22;499;42.648;23.270;2022-11-15T11:46:36;8.30;95.50
1021;DHT22;499;42.648;23.270;2022-11-15T11:49:09;8.50;95.00
1021;DHT22;499;42.648;23.270;2022-11-15T11:51:41;8.50;93.10
1021;DHT22;499;42.648;23.270;2022-11-15T11:54:13;8.40;93.20
1021;DHT22;499;42.648;23.270;2022-11-15T11:56:43;8.40;94.00
1021;DHT22;499;42.648;23.270;2022-11-15T11:59:19;8.60;92.60
1021;DHT22;499;42.648;23.270;2022-11-15T12:01:48;8.60;91.20
1021;DHT22;499;42.648;23.270;2022-11-15T12:04:19;8.70;91.70
1021;DHT22;499;42.648;23.270;2022-11-15T12:06:51;8.70;91.00
1021;DHT22;499;42.648;23.270;2022-11-15T12:09:23;8.80;88.60
1021;DHT22;499;42.648;23.270;2022-11-15T12:11:59;8.90;87.40
1021;DHT22;499;42.648;23.270;2022-11-15T12:14:32;8.80;85.50
1021;DHT22;499;42.648;23.270;2022-11-15T12:16:59;8.80;86.20
1021;DHT22;499;42.648;23.270;2022-11-15T12:19:28;8.90;89.90
1021;DHT22;499;42.648;23.270;2022-11-15T12:22:02;9.30;90.50
1021;DHT22;499;42.648;23.270;2022-11-15T12:24:34;9.20;86.00
1021;DHT22;499;42.648;23.270;2022-11-15T12:27:05;9.20;82.50
1021;DHT22;499;42.648;23.270;2022-11-15T12:29:37;9.40;77.70
1021;DHT22;499;42.648;23.270;2022-11-15T12:32:10;9.40;75.20
1021;DHT22;499;42.648;23.270;2022-11-15T12:34:44;9.40;76.20
1021;DHT22;499;42.648;23.270;2022-11-15T12:37:44;9.40;75.90
1021;DHT22;499;42.648;23.270;2022-11-15T12:40:22;9.50;73.60
1021;DHT22;499;42.648;23.270;2022-11-15T12:46:14;9.40;71.70
1021;DHT22;499;42.648;23.270;2022-11-15T12:48:51;9.40;72.00
1021;DHT22;499;42.648;23.270;2022-11-15T12:51:21;9.50;71.90
1021;DHT22;499;42.648;23.270;2022-11-15T12:53:49;9.60;68.90
1021;DHT22;499;42.648;23.270;2022-11-15T12:56:23;9.60;68.00
1021;DHT22;499;42.648;23.270;2022-11-15T12:58:54;9.60;68.10
1021;DHT22;499;42.648;23.270;2022-11-15T13:01:57;9.70;67.20
1021;DHT22;499;42.648;23.270;2022-11-15T13:04:27;9.70;69.00
1021;DHT22;499;42.648;23.270;2022-11-15T13:06:56;9.80;65.30
1021;DHT22;499;42.648;23.270;2022-11-15T13:12:54;9.80;61.50
1021;DHT22;499;42.648;23.270;2022-11-15T13:15:53;9.80;59.40
1021;DHT22;499;42.648;23.270;2022-11-15T13:18:34;9.70;59.10
1021;DHT22;499;42.648;23.270;2022-11-15T13:21:03;9.60;60.20
1021;DHT22;499;42.648;23.270;2022-11-15T13:23:54;9.60;62.40
1021;DHT22;499;42.648;23.270;2022-11-15T13:26:22;9.60;64.10
1021;DHT22;499;42.648;23.270;2022-11-15T13:28:52;9.50;68.80
1021;DHT22;499;42.648;23.270;2022-11-15T13:31:27;9.30;76.60
1021;DHT22;499;42.648;23.270;2022-11-15T13:33:57;9.30;79.80
1021;DHT22;499;42.648;23.270;2022-11-15T13:36:27;9.40;80.40
1021;DHT22;499;42.648;23.270;2022-11-15T13:38:57;9.30;79.00
1021;DHT22;499;42.648;23.270;2022-11-15T13:41:26;9.30;82.60
1021;DHT22;499;42.648;23.270;2022-11-15T13:43:56;9.40;81.50
1021;DHT22;499;42.648;23.270;2022-11-15T13:46:25;9.30;81.60
1021;DHT22;499;42.648;23.270;2022-11-15T13:48:54;9.30;81.20
1021;DHT22;499;42.648;23.270;2022-11-15T13:51:26;9.40;81.40
1021;DHT22;499;42.648;23.270;2022-11-15T13:53:56;9.20;81.90
1021;DHT22;499;42.648;23.270;2022-11-15T13:56:26;9.10;83.80
1021;DHT22;499;42.648;23.270;2022-11-15T13:58:55;8.90;86.00
1021;DHT22;499;42.648;23.270;2022-11-15T14:01:24;9.00;87.50
1021;DHT22;499;42.648;23.270;2022-11-15T14:03:55;9.00;87.10
1021;DHT22;499;42.648;23.270;2022-11-15T14:06:25;9.00;87.10
1021;DHT22;499;42.648;23.270;2022-11-15T14:09:14;9.00;84.80
1021;DHT22;499;42.648;23.270;2022-11-15T14:11:50;8.90;85.50
1021;DHT22;499;42.648;23.270;2022-11-15T14:14:21;8.80;86.90
1021;DHT22;499;42.648;23.270;2022-11-15T14:16:50;8.80;87.00
1021;DHT22;499;42.648;23.270;2022-11-15T14:19:35;8.80;86.90
1021;DHT22;499;42.648;23.270;2022-11-15T14:22:18;8.70;86.90
1021;DHT22;499;42.648;23.270;2022-11-15T14:25:03;8.70;87.10
1021;DHT22;499;42.648;23.270;2022-11-15T14:27:32;8.60;89.20
1021;DHT22;499;42.648;23.270;2022-11-15T14:30:00;8.50;89.60
1021;DHT22;499;42.648;23.270;2022-11-15T14:32:29;8.50;90.60
1021;DHT22;499;42.648;23.270;2022-11-15T14:34:57;8.30;92.50
1021;DHT22;499;42.648;23.270;2022-11-15T14:37:27;8.20;92.40
1021;DHT22;499;42.648;23.270;2022-11-15T14:39:54;8.00;92.80
1021;DHT22;499;42.648;23.270;2022-11-15T14:42:24;7.90;94.20
1021;DHT22;499;42.648;23.270;2022-11-15T14:44:52;7.90;94.40
1021;DHT22;499;42.648;23.270;2022-11-15T14:47:20;7.80;95.10
1021;DHT22;499;42.648;23.270;2022-11-15T14:49:47;7.70;96.00
1021;DHT22;499;42.648;23.270;2022-11-15T14:52:26;7.70;95.90
1021;DHT22;499;42.648;23.270;2022-11-15T14:54:53;7.70;96.40
1021;DHT22;499;42.648;23.270;2022-11-15T14:57:20;7.60;96.10
1021;DHT22;499;42.648;23.270;2022-11-15T14:59:47;7.40;96.00
1021;DHT22;499;42.648;23.270;2022-11-15T15:02:18;7.30;97.00
1021;DHT22;499;42.648;23.270;2022-11-15T15:04:47;7.20;97.90
1021;DHT22;499;42.648;23.270;2022-11-15T15:07:14;7.00;98.60
1021;DHT22;499;42.648;23.270;2022-11-15T15:09:41;7.00;99.50
1021;DHT22;499;42.648;23.270;2022-11-15T15:12:19;7.00;99.70
1021;DHT22;499;42.648;23.270;2022-11-15T15:14:47;7.10;99.70
1021;DHT22;499;42.648;23.270;2022-11-15T15:17:15;7.00;99.00
1021;DHT22;499;42.648;23.270;2022-11-15T15:19:43;6.90;99.70
1021;DHT22;499;42.648;23.270;2022-11-15T15:22:14;6.80;99.90
1021;DHT22;499;42.648;23.270;2022-11-15T15:24:41;6.80;99.90
1021;DHT22;499;42.648;23.270;2022-11-15T15:27:09;6.80;99.90
1021;DHT22;499;42.648;23.270;2022-11-15T15:29:36;6.70;99.90
1021;DHT22;499;42.648;23.270;2022-11-15T15:32:03;6.70;99.90
1021;DHT22;499;42.648;23.270;2022-11-15T15:34:30;6.70;99.90
1021;DHT22;499;42.648;23.270;2022-11-15T15:37:19;6.70;99.90
1021;DHT22;499;42.648;23.270;2022-11-15T15:39:48;6.70;99.90
1021;DHT22;499;42.648;23.270;2022-11-15T15:42:15;6.70;99.90
1021;DHT22;499;42.648;23.270;2022-11-15T15:44:42;6.70;99.90
1021;DHT22;499;42.648;23.270;2022-11-15T15:47:11;6.60;99.90
1021;DHT22;499;42.648;23.270;2022-11-15T15:49:38;6.60;99.90
1021;DHT22;499;42.648;23.270;2022-11-15T15:52:05;6.60;99.90
1021;DHT22;499;42.648;23.270;2022-11-15T15:54:34;6.70;99.90
1021;DHT22;499;42.648;23.270;2022-11-15T15:57:01;6.60;99.90
1021;DHT22;499;42.648;23.270;2022-11-15T15:59:28;6.60;99.90
1021;DHT22;499;42.648;23.270;2022-11-15T16:01:55;6.50;99.90
1021;DHT22;499;42.648;23.270;2022-11-15T16:04:22;6.70;99.90
1021;DHT22;499;42.648;23.270;2022-11-15T16:06:49;6.70;99.90
1021;DHT22;499;42.648;23.270;2022-11-15T16:09:19;6.60;99.90
1021;DHT22;499;42.648;23.270;2022-11-15T16:12:08;6.50;99.90
1021;DHT22;499;42.648;23.270;2022-11-15T16:14:35;6.50;99.90
1021;DHT22;499;42.648;23.270;2022-11-15T16:17:03;6.50;99.90
1021;DHT22;499;42.648;23.270;2022-11-15T16:19:30;6.60;99.90
1021;DHT22;499;42.648;23.270;2022-11-15T16:21:57;6.60;99.90
1021;DHT22;499;42.648;23.270;2022-11-15T16:24:24;6.70;99.90
1021;DHT22;499;42.648;23.270;2022-11-15T16:26:52;6.70;99.90
1021;DHT22;499;42.648;23.270;2022-11-15T16:29:20;6.70;99.90
1021;DHT22;499;42.648;23.270;2022-11-15T16:31:47;6.60;99.90
1021;DHT22;499;42.648;23.270;2022-11-15T16:34:14;6.70;99.90
1021;DHT22;499;42.648;23.270;2022-11-15T16:36:41;6.60;99.90
1021;DHT22;499;42.648;23.270;2022-11-15T16:39:11;6.50;99.90
1021;DHT22;499;42.648;23.270;2022-11-15T16:41:41;6.50;99.90
1021;DHT22;499;42.648;23.270;2022-11-15T16:44:12;6.40;99.90
1021;DHT22;499;42.648;23.270;2022-11-15T16:46:41;6.30;99.90
1021;DHT22;499;42.648;23.270;2022-11-15T16:49:12;6.30;99.90
1021;DHT22;499;42.648;23.270;2022-11-15T16:51:39;6.20;99.90
1021;DHT22;499;42.648;23.270;2022-11-15T16:54:09;6.10;99.90
1021;DHT22;499;42.648;23.270;2022-11-15T16:56:36;6.10;99.90